Terminal Aerodrome Forecast
Issued by NWS

Home | Current Version | Previous Version | Text Only | Print | Product List | Glossary On
Versions: 1 2 3 4 5 6 7 8 9 10 11 12 13 14 15 16 17 18 19 20 21
000
FTUS44 KLIX 012300 RRA
TAFHUM
TAF
KHUM 012340Z 0200/0224 14005KT P6SM FEW015 SCT050 BKN080
     FM021200 15005KT P6SM VCSH SCT020 BKN110
     FM021700 16007KT P6SM VCTS BKN025CB
     FM022200 17008KT P6SM VCTS SCT025CB BKN250=

USA.gov is the U.S. government's official web portal to all federal, state and local government web resources and services.